Time;durP1;ratioP1;P1;durP2;ratioP2;P2;SDS_P1;SDS_P2;PMS_P1;PMS_P2;Temp;Humidity;BMP_temperature;BMP_pressure;BME280_temperature;BME280_humidity;BME280_pressure;Samples;Min_cycle;Max_cycle;Signal;HPM_P1;HPM_P2
2023/08/03 00:01:39;;;;;;;;;;;21.10;71.60;;;;;;5005256;28;886;-69
2023/08/03 00:04:05;;;;;;;;;;;21.10;71.60;;;;;;5001490;28;1265;-69
2023/08/03 00:06:30;;;;;;;;;;;21.10;71.60;;;;;;5002509;28;1606;-69
2023/08/03 00:08:56;;;;;;;;;;;21.10;71.60;;;;;;5001131;28;1203;-69
2023/08/03 00:11:21;;;;;;;;;;;21.10;71.60;;;;;;5001074;28;919;-69
2023/08/03 00:13:46;;;;;;;;;;;21.10;71.60;;;;;;5001974;28;1360;-69
2023/08/03 00:16:12;;;;;;;;;;;21.10;71.60;;;;;;5000764;28;1948;-68
2023/08/03 00:18:37;;;;;;;;;;;21.10;72.30;;;;;;5004423;28;946;-70
2023/08/03 00:21:03;;;;;;;;;;;21.10;71.60;;;;;;5003282;28;1338;-70
2023/08/03 00:23:28;;;;;;;;;;;21.10;71.60;;;;;;4999913;28;1230;-70
2023/08/03 00:25:54;;;;;;;;;;;21.10;71.60;;;;;;4999066;28;1011;-70
2023/08/03 00:28:21;;;;;;;;;;;21.10;71.60;;;;;;4998901;28;939;-70
2023/08/03 00:30:46;;;;;;;;;;;21.10;71.60;;;;;;5000471;28;907;-70
2023/08/03 00:33:12;;;;;;;;;;;21.10;71.60;;;;;;5002590;28;1365;-70
2023/08/03 00:35:37;;;;;;;;;;;21.10;71.60;;;;;;5004394;28;1906;-70
2023/08/03 00:38:03;;;;;;;;;;;21.10;71.60;;;;;;5002263;28;936;-70
2023/08/03 00:40:28;;;;;;;;;;;21.10;71.60;;;;;;5002359;28;1295;-70
2023/08/03 00:42:53;;;;;;;;;;;21.10;71.60;;;;;;5003997;28;1288;-70
2023/08/03 00:45:19;;;;;;;;;;;21.10;71.60;;;;;;5001522;28;880;-70
2023/08/03 00:47:44;;;;;;;;;;;21.10;71.60;;;;;;4999123;28;798;-70
2023/08/03 00:50:10;;;;;;;;;;;21.10;71.60;;;;;;5001333;28;900;-69
2023/08/03 00:52:36;;;;;;;;;;;21.10;71.60;;;;;;5002768;28;1388;-70
2023/08/03 00:55:02;;;;;;;;;;;21.10;71.60;;;;;;5000833;28;1890;-70
2023/08/03 00:57:28;;;;;;;;;;;21.10;71.60;;;;;;5003363;28;1008;-70
2023/08/03 00:59:54;;;;;;;;;;;21.10;71.60;;;;;;5002428;28;880;-69
2023/08/03 01:02:19;;;;;;;;;;;21.10;71.60;;;;;;5001700;28;916;-70
2023/08/03 01:04:45;;;;;;;;;;;21.10;71.60;;;;;;4998758;28;1331;-70
2023/08/03 01:07:10;;;;;;;;;;;21.10;71.60;;;;;;4998869;28;1262;-70
2023/08/03 01:09:36;;;;;;;;;;;21.10;71.60;;;;;;4986263;28;825;-70
2023/08/03 01:12:01;;;;;;;;;;;21.10;71.60;;;;;;4998420;28;796;-70
2023/08/03 01:14:27;;;;;;;;;;;21.10;71.70;;;;;;4999880;28;1246;-70
2023/08/03 01:16:52;;;;;;;;;;;21.10;71.70;;;;;;5001445;28;1957;-69
2023/08/03 01:19:18;;;;;;;;;;;21.10;71.60;;;;;;5001181;28;1187;-70
2023/08/03 01:21:43;;;;;;;;;;;21.10;71.60;;;;;;5002775;28;932;-70
2023/08/03 01:24:11;;;;;;;;;;;21.10;71.60;;;;;;5001746;28;1285;-70
2023/08/03 01:26:37;;;;;;;;;;;21.10;71.60;;;;;;4984383;28;833;-70
2023/08/03 01:29:02;;;;;;;;;;;21.10;71.60;;;;;;5000184;28;1252;-69
2023/08/03 01:31:28;;;;;;;;;;;21.10;71.60;;;;;;5002610;28;881;-70
2023/08/03 01:33:53;;;;;;;;;;;21.10;71.60;;;;;;5000602;28;1273;-70
2023/08/03 01:36:19;;;;;;;;;;;21.10;71.60;;;;;;4986857;28;1914;-70
2023/08/03 01:38:44;;;;;;;;;;;21.10;71.60;;;;;;4997955;28;966;-70
2023/08/03 01:41:09;;;;;;;;;;;21.10;71.70;;;;;;5000131;28;914;-70
2023/08/03 01:43:35;;;;;;;;;;;21.10;71.60;;;;;;5000825;28;1442;-69
2023/08/03 01:46:00;;;;;;;;;;;21.10;71.70;;;;;;5002999;28;1396;-71
2023/08/03 01:48:26;;;;;;;;;;;21.10;71.70;;;;;;5001579;28;1438;-71
2023/08/03 01:50:51;;;;;;;;;;;21.10;71.60;;;;;;5002173;28;1353;-69
2023/08/03 01:53:17;;;;;;;;;;;21.10;71.70;;;;;;5001184;28;1608;-68
2023/08/03 01:55:45;;;;;;;;;;;21.10;71.70;;;;;;4997852;28;1898;-71
2023/08/03 01:58:12;;;;;;;;;;;21.10;71.70;;;;;;4996614;28;939;-69
2023/08/03 02:00:37;;;;;;;;;;;21.10;71.70;;;;;;4998956;28;931;-70
2023/08/03 02:03:03;;;;;;;;;;;21.10;71.70;;;;;;5000889;28;1334;-68
2023/08/03 02:05:28;;;;;;;;;;;21.10;71.70;;;;;;4999814;28;864;-68
2023/08/03 02:07:54;;;;;;;;;;;21.10;71.70;;;;;;5002095;28;940;-69
2023/08/03 02:10:20;;;;;;;;;;;21.10;71.70;;;;;;4996208;28;899;-70
2023/08/03 02:12:45;;;;;;;;;;;21.10;71.70;;;;;;4999245;28;1264;-70
2023/08/03 02:15:12;;;;;;;;;;;21.10;71.70;;;;;;4999541;28;1894;-71
2023/08/03 02:17:38;;;;;;;;;;;21.10;71.70;;;;;;4999466;28;835;-69
2023/08/03 02:20:03;;;;;;;;;;;21.10;71.70;;;;;;4999163;28;1369;-72
2023/08/03 02:22:29;;;;;;;;;;;21.10;71.70;;;;;;5004438;28;1028;-70
2023/08/03 02:24:54;;;;;;;;;;;21.10;71.70;;;;;;5001214;28;1265;-69
2023/08/03 02:27:20;;;;;;;;;;;21.10;71.70;;;;;;4999052;28;888;-69
2023/08/03 02:29:45;;;;;;;;;;;21.10;71.70;;;;;;5003160;28;1007;-69
2023/08/03 02:32:11;;;;;;;;;;;21.10;71.70;;;;;;5004503;28;832;-70
2023/08/03 02:34:36;;;;;;;;;;;21.10;71.70;;;;;;4998761;28;1970;-69
2023/08/03 02:37:02;;;;;;;;;;;21.10;71.70;;;;;;5000871;28;936;-69
2023/08/03 02:39:27;;;;;;;;;;;21.10;71.70;;;;;;5001629;28;892;-70
2023/08/03 02:41:52;;;;;;;;;;;21.10;71.70;;;;;;5000507;28;956;-70
2023/08/03 02:44:18;;;;;;;;;;;21.10;71.70;;;;;;4998680;28;1259;-71
2023/08/03 02:46:44;;;;;;;;;;;21.10;71.70;;;;;;4998314;28;943;-69
2023/08/03 02:49:09;;;;;;;;;;;21.10;71.70;;;;;;4998612;28;852;-70
2023/08/03 02:51:34;;;;;;;;;;;21.10;71.70;;;;;;5001520;28;834;-70
2023/08/03 02:54:00;;;;;;;;;;;21.10;71.70;;;;;;4999817;28;1246;-69
2023/08/03 02:56:25;;;;;;;;;;;21.10;71.70;;;;;;5000381;28;1906;-69
2023/08/03 02:58:51;;;;;;;;;;;21.10;71.80;;;;;;4995734;28;983;-70
2023/08/03 03:01:19;;;;;;;;;;;21.10;71.70;;;;;;4995891;28;1014;-70
2023/08/03 03:03:45;;;;;;;;;;;21.10;71.70;;;;;;5001020;28;1353;-69
2023/08/03 03:06:10;;;;;;;;;;;21.10;71.70;;;;;;4996949;28;1027;-69
2023/08/03 03:08:35;;;;;;;;;;;21.10;71.80;;;;;;4997876;28;844;-69
2023/08/03 03:11:01;;;;;;;;;;;21.10;71.80;;;;;;5000408;28;900;-70
2023/08/03 03:13:26;;;;;;;;;;;21.10;71.80;;;;;;4997732;28;1371;-69
2023/08/03 03:15:52;;;;;;;;;;;21.10;71.80;;;;;;5000635;28;1902;-70
2023/08/03 03:18:17;;;;;;;;;;;21.10;71.80;;;;;;4994327;28;1408;-71
2023/08/03 03:20:43;;;;;;;;;;;21.10;71.80;;;;;;4999241;28;1342;-69
2023/08/03 03:23:08;;;;;;;;;;;21.10;71.80;;;;;;5000786;28;1235;-69
2023/08/03 03:25:34;;;;;;;;;;;21.10;71.80;;;;;;5001576;28;837;-71
2023/08/03 03:28:04;;;;;;;;;;;21.10;71.80;;;;;;4999464;28;824;-70
2023/08/03 03:30:32;;;;;;;;;;;21.10;71.80;;;;;;5000529;28;880;-71
2023/08/03 03:32:58;;;;;;;;;;;21.10;71.80;;;;;;4983613;28;1212;-69
2023/08/03 03:35:23;;;;;;;;;;;21.10;71.80;;;;;;5000062;28;1898;-70
2023/08/03 03:37:49;;;;;;;;;;;21.10;71.80;;;;;;5000363;28;912;-70
2023/08/03 03:40:14;;;;;;;;;;;21.10;71.80;;;;;;4998622;28;1006;-72
2023/08/03 03:42:40;;;;;;;;;;;21.10;71.80;;;;;;4999818;28;864;-68
2023/08/03 03:45:06;;;;;;;;;;;21.10;71.80;;;;;;4982220;28;1323;-71
2023/08/03 03:47:31;;;;;;;;;;;21.10;71.80;;;;;;4997862;28;829;-70
2023/08/03 03:49:59;;;;;;;;;;;21.10;71.80;;;;;;4998120;28;912;-70
2023/08/03 03:52:25;;;;;;;;;;;21.10;71.80;;;;;;4983596;28;817;-71
2023/08/03 03:54:50;;;;;;;;;;;21.10;71.80;;;;;;4998257;28;1898;-71
2023/08/03 03:57:16;;;;;;;;;;;21.10;71.80;;;;;;4990213;28;1180;-70
2023/08/03 03:59:41;;;;;;;;;;;21.10;71.80;;;;;;4997242;28;904;-71
2023/08/03 04:02:07;;;;;;;;;;;21.10;71.80;;;;;;4997540;28;995;-71
2023/08/03 04:04:32;;;;;;;;;;;21.10;71.80;;;;;;4996919;28;1273;-71
2023/08/03 04:06:58;;;;;;;;;;;21.10;71.80;;;;;;4994694;28;1006;-71
2023/08/03 04:09:23;;;;;;;;;;;21.10;71.80;;;;;;5002102;28;856;-71
2023/08/03 04:11:49;;;;;;;;;;;21.10;71.80;;;;;;4998213;28;1002;-69
2023/08/03 04:14:14;;;;;;;;;;;21.10;71.80;;;;;;4996224;28;1280;-70
2023/08/03 04:16:39;;;;;;;;;;;21.10;71.80;;;;;;5000473;28;1902;-70
2023/08/03 04:19:05;;;;;;;;;;;21.10;71.80;;;;;;4997939;28;887;-70
2023/08/03 04:21:30;;;;;;;;;;;21.10;71.80;;;;;;4999757;28;1544;-71
2023/08/03 04:23:59;;;;;;;;;;;21.10;71.80;;;;;;4999056;28;1291;-69
2023/08/03 04:26:24;;;;;;;;;;;21.10;71.80;;;;;;4996563;28;877;-69
2023/08/03 04:28:50;;;;;;;;;;;21.10;71.80;;;;;;4999855;28;1268;-71
2023/08/03 04:31:15;;;;;;;;;;;21.10;71.80;;;;;;4983862;28;1144;-70
2023/08/03 04:33:41;;;;;;;;;;;21.10;71.80;;;;;;4999180;28;1229;-70
2023/08/03 04:36:06;;;;;;;;;;;21.10;71.80;;;;;;4998063;28;1974;-70
2023/08/03 04:38:32;;;;;;;;;;;21.10;71.80;;;;;;4997981;28;876;-70
2023/08/03 04:41:00;;;;;;;;;;;21.10;71.80;;;;;;4999155;28;956;-70
2023/08/03 04:43:26;;;;;;;;;;;21.10;71.80;;;;;;5002039;28;1193;-69
2023/08/03 04:45:51;;;;;;;;;;;21.10;71.80;;;;;;5003956;28;861;-69
2023/08/03 04:48:17;;;;;;;;;;;21.10;71.80;;;;;;5002490;28;837;-69
2023/08/03 04:50:42;;;;;;;;;;;21.10;71.80;;;;;;5004345;28;939;-69
2023/08/03 04:53:08;;;;;;;;;;;21.10;71.80;;;;;;5000428;28;1277;-70
2023/08/03 04:55:33;;;;;;;;;;;21.10;71.80;;;;;;5000535;28;2001;-71
2023/08/03 04:57:58;;;;;;;;;;;21.10;71.80;;;;;;4999986;28;1097;-71
2023/08/03 05:00:24;;;;;;;;;;;21.10;71.80;;;;;;5002368;28;805;-70
2023/08/03 05:02:49;;;;;;;;;;;21.10;71.80;;;;;;5001925;28;1269;-71
2023/08/03 05:05:15;;;;;;;;;;;21.10;71.80;;;;;;4999279;28;840;-71
2023/08/03 05:07:40;;;;;;;;;;;21.10;71.80;;;;;;4987288;28;871;-71
2023/08/03 05:10:06;;;;;;;;;;;21.10;71.80;;;;;;5001699;28;1571;-72
2023/08/03 05:12:31;;;;;;;;;;;21.10;71.80;;;;;;4998359;28;886;-72
2023/08/03 05:14:57;;;;;;;;;;;21.10;71.80;;;;;;4999821;28;1894;-71
2023/08/03 05:17:22;;;;;;;;;;;21.10;71.80;;;;;;5001591;28;864;-71
2023/08/03 05:19:49;;;;;;;;;;;21.10;71.80;;;;;;4986910;28;1311;-71
2023/08/03 05:22:14;;;;;;;;;;;21.10;71.80;;;;;;5001630;28;880;-70
2023/08/03 05:24:40;;;;;;;;;;;21.10;71.80;;;;;;4995358;28;1233;-70
2023/08/03 05:27:05;;;;;;;;;;;21.10;71.80;;;;;;4999004;28;939;-69
2023/08/03 05:29:31;;;;;;;;;;;21.10;71.70;;;;;;4977097;28;1158;-70
2023/08/03 05:31:57;;;;;;;;;;;21.10;71.70;;;;;;5001113;28;1031;-69
2023/08/03 05:34:23;;;;;;;;;;;21.10;71.60;;;;;;5003050;28;1243;-68
2023/08/03 05:36:50;;;;;;;;;;;21.10;71.20;;;;;;5002665;28;1934;-68
2023/08/03 05:39:16;;;;;;;;;;;21.10;70.90;;;;;;4979283;28;2462;-69
2023/08/03 05:41:41;;;;;;;;;;;21.10;70.80;;;;;;5002365;28;1859;-68
2023/08/03 05:44:06;;;;;;;;;;;21.00;70.60;;;;;;5000150;28;1346;-69
2023/08/03 05:46:32;;;;;;;;;;;21.00;70.50;;;;;;4998656;28;1454;-69
2023/08/03 05:48:58;;;;;;;;;;;21.00;70.40;;;;;;5000993;28;1286;-68
2023/08/03 05:51:24;;;;;;;;;;;21.00;70.40;;;;;;5001132;28;966;-67
2023/08/03 05:53:50;;;;;;;;;;;21.00;70.10;;;;;;4998506;28;1315;-67
2023/08/03 05:56:16;;;;;;;;;;;21.00;69.90;;;;;;4994165;28;1910;-68
2023/08/03 05:58:41;;;;;;;;;;;21.00;69.80;;;;;;5000113;28;1341;-69
2023/08/03 06:01:07;;;;;;;;;;;21.00;69.70;;;;;;4997593;28;917;-69
2023/08/03 06:03:33;;;;;;;;;;;21.00;69.50;;;;;;4998295;28;1294;-70
2023/08/03 06:05:59;;;;;;;;;;;21.00;69.40;;;;;;5000367;28;856;-70
2023/08/03 06:08:24;;;;;;;;;;;21.00;69.30;;;;;;4999736;28;825;-68
2023/08/03 06:10:53;;;;;;;;;;;21.00;69.40;;;;;;4996144;28;896;-68
2023/08/03 06:13:25;;;;;;;;;;;21.00;69.30;;;;;;4999857;28;1247;-68
2023/08/03 06:15:50;;;;;;;;;;;21.00;69.30;;;;;;4997004;28;1963;-69
2023/08/03 06:18:16;;;;;;;;;;;21.00;68.90;;;;;;4998897;28;868;-71
2023/08/03 06:20:46;;;;;;;;;;;21.00;68.70;;;;;;5002890;28;1256;-69
2023/08/03 06:23:14;;;;;;;;;;;21.00;68.70;;;;;;4979905;28;1296;-70
2023/08/03 06:25:40;;;;;;;;;;;21.00;68.70;;;;;;4997875;28;900;-69
2023/08/03 06:28:06;;;;;;;;;;;21.00;68.60;;;;;;4998044;28;1278;-71
2023/08/03 06:30:31;;;;;;;;;;;21.00;68.40;;;;;;4997379;28;932;-72
2023/08/03 06:32:57;;;;;;;;;;;21.00;68.20;;;;;;4999387;28;1280;-72
2023/08/03 06:35:24;;;;;;;;;;;21.00;67.90;;;;;;4996556;28;1966;-72
2023/08/03 06:37:53;;;;;;;;;;;21.00;68.00;;;;;;4996508;28;859;-71
2023/08/03 06:40:19;;;;;;;;;;;21.00;68.10;;;;;;4997950;28;860;-71
2023/08/03 06:42:44;;;;;;;;;;;21.00;68.20;;;;;;4996784;28;1309;-71
2023/08/03 06:45:10;;;;;;;;;;;21.00;68.40;;;;;;4998418;28;947;-70
2023/08/03 06:47:36;;;;;;;;;;;21.00;68.00;;;;;;5000365;28;864;-68
2023/08/03 06:50:02;;;;;;;;;;;21.00;67.90;;;;;;4998211;28;947;-69
2023/08/03 06:52:27;;;;;;;;;;;21.10;67.60;;;;;;4978349;28;847;-67
2023/08/03 06:54:52;;;;;;;;;;;21.10;67.60;;;;;;4990457;28;1978;-67
2023/08/03 06:57:18;;;;;;;;;;;21.10;67.50;;;;;;4996656;28;955;-72
2023/08/03 06:59:43;;;;;;;;;;;21.10;67.50;;;;;;4983510;28;1069;-73
2023/08/03 07:02:09;;;;;;;;;;;21.10;67.10;;;;;;4998173;28;872;-71
2023/08/03 07:04:34;;;;;;;;;;;21.10;67.10;;;;;;4999028;28;1300;-71
2023/08/03 07:07:00;;;;;;;;;;;21.10;66.70;;;;;;5002531;28;1045;-71
2023/08/03 07:09:25;;;;;;;;;;;21.10;66.40;;;;;;4994983;28;834;-71
2023/08/03 07:11:51;;;;;;;;;;;21.10;66.50;;;;;;4999575;28;907;-72
2023/08/03 07:14:16;;;;;;;;;;;21.10;66.40;;;;;;5000452;28;1200;-72
2023/08/03 07:16:42;;;;;;;;;;;21.10;66.40;;;;;;4999261;28;1902;-72
2023/08/03 07:19:10;;;;;;;;;;;21.10;66.70;;;;;;4998489;28;1367;-71
2023/08/03 07:21:35;;;;;;;;;;;21.10;66.90;;;;;;4998221;28;1535;-72
2023/08/03 07:24:01;;;;;;;;;;;21.10;66.70;;;;;;4998882;28;1382;-70
2023/08/03 07:26:27;;;;;;;;;;;21.10;66.50;;;;;;4998153;28;848;-69
2023/08/03 07:28:52;;;;;;;;;;;21.10;66.00;;;;;;5003942;28;1327;-69
2023/08/03 07:31:18;;;;;;;;;;;21.10;66.00;;;;;;4992464;28;1234;-69
2023/08/03 07:33:43;;;;;;;;;;;21.10;65.80;;;;;;4993651;28;1336;-69
2023/08/03 07:36:14;;;;;;;;;;;21.10;65.70;;;;;;4996976;28;1903;-69
2023/08/03 07:38:39;;;;;;;;;;;21.10;65.80;;;;;;4978628;28;1258;-69
2023/08/03 07:41:05;;;;;;;;;;;21.10;66.10;;;;;;4998824;28;973;-69
2023/08/03 07:43:31;;;;;;;;;;;21.10;66.20;;;;;;5000220;28;1363;-69
2023/08/03 07:45:56;;;;;;;;;;;21.10;66.20;;;;;;4998629;28;1011;-71
2023/08/03 07:48:22;;;;;;;;;;;21.10;66.10;;;;;;4998103;28;893;-71
2023/08/03 07:50:47;;;;;;;;;;;21.10;65.90;;;;;;5000030;28;958;-72
2023/08/03 07:53:13;;;;;;;;;;;21.10;65.80;;;;;;5001497;28;1263;-74
2023/08/03 07:55:39;;;;;;;;;;;21.10;65.70;;;;;;5002164;28;1906;-73
2023/08/03 07:58:05;;;;;;;;;;;21.20;65.70;;;;;;5000416;28;1455;-71
2023/08/03 08:00:30;;;;;;;;;;;21.10;65.30;;;;;;5000269;28;904;-71
2023/08/03 08:02:56;;;;;;;;;;;21.20;65.10;;;;;;4985227;28;1292;-71
2023/08/03 08:05:24;;;;;;;;;;;21.20;65.40;;;;;;4998007;28;994;-71
2023/08/03 08:07:49;;;;;;;;;;;21.20;65.50;;;;;;5000160;28;880;-71
2023/08/03 08:10:15;;;;;;;;;;;21.20;65.50;;;;;;4999914;28;827;-72
2023/08/03 08:12:40;;;;;;;;;;;21.20;65.40;;;;;;4983951;28;1011;-72
2023/08/03 08:15:06;;;;;;;;;;;21.20;65.20;;;;;;5000921;28;1902;-72
2023/08/03 08:17:31;;;;;;;;;;;21.20;64.50;;;;;;5001090;28;942;-71
2023/08/03 08:19:57;;;;;;;;;;;21.20;64.50;;;;;;4999285;28;1297;-72
2023/08/03 08:22:22;;;;;;;;;;;21.20;64.90;;;;;;5003637;28;819;-72
2023/08/03 08:24:48;;;;;;;;;;;21.20;65.20;;;;;;5001307;28;1277;-72
2023/08/03 08:27:14;;;;;;;;;;;21.20;64.70;;;;;;4987727;28;1303;-72
2023/08/03 08:29:40;;;;;;;;;;;21.20;64.60;;;;;;4999214;28;1296;-71
2023/08/03 08:32:05;;;;;;;;;;;21.20;64.40;;;;;;5004080;28;1492;-72
2023/08/03 08:34:31;;;;;;;;;;;21.20;64.20;;;;;;5004133;28;1288;-71
2023/08/03 08:36:57;;;;;;;;;;;21.20;64.00;;;;;;5001940;28;1906;-71
2023/08/03 08:39:23;;;;;;;;;;;21.20;63.80;;;;;;5000875;28;1319;-71
2023/08/03 08:41:48;;;;;;;;;;;21.20;63.60;;;;;;5002267;28;876;-71
2023/08/03 08:44:14;;;;;;;;;;;21.30;63.70;;;;;;5001815;28;1377;-72
2023/08/03 08:46:45;;;;;;;;;;;21.20;64.20;;;;;;4991686;28;1196;-72
2023/08/03 08:49:11;;;;;;;;;;;21.30;64.40;;;;;;4987469;28;967;-72
2023/08/03 08:51:37;;;;;;;;;;;21.30;64.50;;;;;;4999005;28;1046;-72
2023/08/03 08:54:02;;;;;;;;;;;21.30;64.60;;;;;;4992292;28;1362;-72
2023/08/03 08:56:27;;;;;;;;;;;21.30;64.50;;;;;;4999043;28;1898;-72
2023/08/03 08:58:53;;;;;;;;;;;21.30;64.20;;;;;;5001933;28;812;-72
2023/08/03 09:01:18;;;;;;;;;;;21.30;64.20;;;;;;5001774;28;832;-72
2023/08/03 09:03:44;;;;;;;;;;;21.30;64.50;;;;;;5001163;28;1357;-71
2023/08/03 09:06:10;;;;;;;;;;;21.30;64.80;;;;;;4999474;28;882;-72
2023/08/03 09:08:49;;;;;;;;;;;21.30;64.60;;;;;;5002925;28;933;-72
2023/08/03 09:11:14;;;;;;;;;;;21.30;64.30;;;;;;5001615;28;900;-72
2023/08/03 09:13:40;;;;;;;;;;;21.30;64.60;;;;;;4998092;28;1269;-72
2023/08/03 09:16:06;;;;;;;;;;;21.30;64.60;;;;;;5002753;28;1972;-71
2023/08/03 09:18:31;;;;;;;;;;;21.40;64.50;;;;;;4987603;28;1251;-71
2023/08/03 09:21:09;;;;;;;;;;;21.40;64.60;;;;;;4996803;28;1355;-71
2023/08/03 09:23:36;;;;;;;;;;;21.40;64.30;;;;;;5004965;28;1345;-71
2023/08/03 09:26:02;;;;;;;;;;;21.40;64.70;;;;;;5000052;28;993;-70
2023/08/03 09:28:34;;;;;;;;;;;21.40;64.80;;;;;;4993334;28;1277;-71
2023/08/03 09:31:00;;;;;;;;;;;21.40;64.50;;;;;;5002209;28;820;-72
2023/08/03 09:33:25;;;;;;;;;;;21.40;64.30;;;;;;4989853;28;1273;-72
2023/08/03 09:36:00;;;;;;;;;;;21.40;63.80;;;;;;5002540;28;1959;-72
2023/08/03 09:38:25;;;;;;;;;;;21.40;63.30;;;;;;4999077;28;832;-72
2023/08/03 09:40:51;;;;;;;;;;;21.40;62.90;;;;;;5002677;28;939;-72
2023/08/03 09:43:17;;;;;;;;;;;21.40;63.00;;;;;;4998349;28;1267;-72
2023/08/03 09:45:43;;;;;;;;;;;21.40;63.10;;;;;;4999746;28;836;-72
2023/08/03 09:48:08;;;;;;;;;;;21.40;63.30;;;;;;4999758;28;980;-72
2023/08/03 09:50:34;;;;;;;;;;;21.40;63.30;;;;;;5003926;28;1095;-72
2023/08/03 09:52:59;;;;;;;;;;;21.40;63.20;;;;;;4999780;28;1234;-72
2023/08/03 09:55:28;;;;;;;;;;;21.40;63.30;;;;;;5002340;28;1898;-72
2023/08/03 09:58:00;;;;;;;;;;;21.40;63.30;;;;;;4991744;28;855;-72
2023/08/03 10:00:26;;;;;;;;;;;21.40;64.00;;;;;;4987808;28;838;-72
2023/08/03 10:02:52;;;;;;;;;;;21.40;63.70;;;;;;4988874;28;1271;-71
2023/08/03 10:05:18;;;;;;;;;;;21.40;63.10;;;;;;4998387;28;803;-71
2023/08/03 10:07:48;;;;;;;;;;;21.40;62.60;;;;;;4986239;28;892;-72
2023/08/03 10:10:13;;;;;;;;;;;21.40;62.70;;;;;;4987704;28;877;-71
2023/08/03 10:12:43;;;;;;;;;;;21.40;62.70;;;;;;4985925;28;865;-72
2023/08/03 10:15:09;;;;;;;;;;;21.40;62.80;;;;;;4984773;28;1899;-72
2023/08/03 10:17:35;;;;;;;;;;;21.40;63.00;;;;;;4998996;28;1078;-72
2023/08/03 10:20:00;;;;;;;;;;;21.40;63.10;;;;;;4999527;28;1321;-72
2023/08/03 10:22:26;;;;;;;;;;;21.40;63.20;;;;;;4984145;28;809;-72
2023/08/03 10:25:10;;;;;;;;;;;21.40;63.30;;;;;;4990423;28;1354;-71
2023/08/03 10:27:35;;;;;;;;;;;21.40;63.40;;;;;;5000758;28;1049;-72
2023/08/03 10:30:02;;;;;;;;;;;21.40;63.70;;;;;;4993509;28;904;-72
2023/08/03 10:32:28;;;;;;;;;;;21.50;63.90;;;;;;4998702;28;1246;-72
2023/08/03 10:34:58;;;;;;;;;;;21.50;63.90;;;;;;4998680;28;1993;-72
2023/08/03 10:37:24;;;;;;;;;;;21.50;63.80;;;;;;4985732;28;890;-72
2023/08/03 10:39:53;;;;;;;;;;;21.50;63.80;;;;;;4999005;28;844;-72
2023/08/03 10:42:26;;;;;;;;;;;21.50;63.80;;;;;;5001174;28;864;-73
2023/08/03 10:44:51;;;;;;;;;;;21.50;63.70;;;;;;4972892;28;1500;-72
2023/08/03 10:47:29;;;;;;;;;;;21.50;63.70;;;;;;5002555;28;832;-72
2023/08/03 10:49:55;;;;;;;;;;;21.50;63.80;;;;;;4983763;28;829;-72
2023/08/03 10:52:21;;;;;;;;;;;21.50;64.10;;;;;;4989185;28;1680;-73
2023/08/03 10:54:47;;;;;;;;;;;21.60;64.20;;;;;;4998966;28;1375;-72
2023/08/03 10:57:17;;;;;;;;;;;21.60;64.30;;;;;;4999367;28;2001;-72
2023/08/03 10:59:43;;;;;;;;;;;21.60;64.30;;;;;;4997481;28;1222;-73
2023/08/03 11:02:09;;;;;;;;;;;21.60;64.60;;;;;;4997363;28;870;-72
2023/08/03 11:04:34;;;;;;;;;;;21.60;64.80;;;;;;4999599;28;1353;-72
2023/08/03 11:07:00;;;;;;;;;;;21.60;64.90;;;;;;4999880;28;910;-72
2023/08/03 11:09:25;;;;;;;;;;;21.70;64.80;;;;;;5001077;28;928;-72
2023/08/03 11:11:54;;;;;;;;;;;21.70;64.60;;;;;;4985694;28;1168;-72
2023/08/03 11:14:20;;;;;;;;;;;21.70;64.40;;;;;;4995132;28;1287;-72
2023/08/03 11:16:45;;;;;;;;;;;21.70;64.20;;;;;;4999749;28;2025;-71
2023/08/03 11:19:13;;;;;;;;;;;21.70;64.10;;;;;;4982219;28;916;-71
2023/08/03 11:21:40;;;;;;;;;;;21.70;64.00;;;;;;4999160;28;1009;-72
2023/08/03 11:24:05;;;;;;;;;;;21.70;63.90;;;;;;4999718;28;1709;-72
2023/08/03 11:26:31;;;;;;;;;;;21.80;63.70;;;;;;4999904;28;862;-71
2023/08/03 11:28:56;;;;;;;;;;;21.70;63.40;;;;;;4983794;28;1265;-71
2023/08/03 11:31:22;;;;;;;;;;;21.70;63.30;;;;;;4994964;28;828;-71
2023/08/03 11:33:51;;;;;;;;;;;21.70;63.40;;;;;;4999622;28;1350;-71
2023/08/03 11:36:17;;;;;;;;;;;21.70;63.60;;;;;;5000419;28;1886;-71
2023/08/03 11:38:42;;;;;;;;;;;21.70;63.40;;;;;;4998524;28;928;-71
2023/08/03 11:41:09;;;;;;;;;;;21.70;63.20;;;;;;4993538;28;922;-71
2023/08/03 11:43:34;;;;;;;;;;;21.70;63.10;;;;;;5000992;28;1346;-72
2023/08/03 11:46:00;;;;;;;;;;;21.70;63.40;;;;;;4999116;28;874;-71
2023/08/03 11:48:26;;;;;;;;;;;21.70;63.00;;;;;;4994639;28;1058;-71
2023/08/03 11:50:54;;;;;;;;;;;21.70;62.80;;;;;;5001584;28;824;-71
2023/08/03 11:53:26;;;;;;;;;;;21.70;63.00;;;;;;5002832;28;1267;-71
2023/08/03 11:55:52;;;;;;;;;;;21.70;62.90;;;;;;4979256;28;1919;-71
2023/08/03 11:58:21;;;;;;;;;;;21.70;63.10;;;;;;4999985;28;1360;-71
2023/08/03 12:00:47;;;;;;;;;;;21.70;63.10;;;;;;5001458;28;866;-71
2023/08/03 12:03:17;;;;;;;;;;;21.70;63.10;;;;;;5000926;28;1261;-71
2023/08/03 12:05:51;;;;;;;;;;;21.70;62.90;;;;;;4988674;28;858;-71
2023/08/03 12:08:20;;;;;;;;;;;21.70;62.50;;;;;;5001620;28;916;-71
2023/08/03 12:11:01;;;;;;;;;;;21.70;62.20;;;;;;4986215;28;840;-71
2023/08/03 12:13:27;;;;;;;;;;;21.70;62.00;;;;;;5003360;28;1268;-71
2023/08/03 12:15:53;;;;;;;;;;;21.70;61.70;;;;;;5001006;28;1898;-71
2023/08/03 12:18:18;;;;;;;;;;;21.70;61.10;;;;;;5001722;28;1657;-71
2023/08/03 12:20:44;;;;;;;;;;;21.70;61.30;;;;;;4987573;28;1228;-71
2023/08/03 12:23:09;;;;;;;;;;;21.70;61.20;;;;;;5001964;28;1268;-71
2023/08/03 12:25:35;;;;;;;;;;;21.70;61.90;;;;;;5001554;28;1046;-71
2023/08/03 12:28:01;;;;;;;;;;;21.70;61.40;;;;;;5001246;28;1344;-70
2023/08/03 12:30:26;;;;;;;;;;;21.70;61.20;;;;;;4987651;28;887;-71
2023/08/03 12:32:52;;;;;;;;;;;21.60;61.30;;;;;;4988452;28;1253;-72
2023/08/03 12:35:17;;;;;;;;;;;21.60;61.80;;;;;;5002166;28;1902;-71
2023/08/03 12:37:42;;;;;;;;;;;21.60;62.30;;;;;;5000606;28;876;-72
2023/08/03 12:40:08;;;;;;;;;;;21.60;62.30;;;;;;4998958;28;1388;-72
2023/08/03 12:42:34;;;;;;;;;;;21.60;62.30;;;;;;5001469;28;820;-72
2023/08/03 12:44:59;;;;;;;;;;;21.60;62.30;;;;;;5001866;28;1317;-71
2023/08/03 12:47:25;;;;;;;;;;;21.60;62.40;;;;;;5001341;28;895;-72
2023/08/03 12:49:52;;;;;;;;;;;21.60;62.50;;;;;;5000248;28;932;-72
2023/08/03 12:52:18;;;;;;;;;;;21.60;62.20;;;;;;5002116;28;825;-72
2023/08/03 12:54:44;;;;;;;;;;;21.60;62.30;;;;;;5001180;28;1337;-71
2023/08/03 12:57:09;;;;;;;;;;;21.60;62.70;;;;;;4998587;28;1911;-72
2023/08/03 12:59:34;;;;;;;;;;;21.50;63.50;;;;;;4996994;28;837;-72
2023/08/03 13:02:00;;;;;;;;;;;21.50;64.60;;;;;;5001255;28;942;-72
2023/08/03 13:04:25;;;;;;;;;;;21.50;65.20;;;;;;5004061;28;1805;-72
2023/08/03 13:06:51;;;;;;;;;;;21.50;65.50;;;;;;4998931;28;812;-72
2023/08/03 13:09:16;;;;;;;;;;;21.50;65.80;;;;;;5000396;28;955;-72
2023/08/03 13:11:42;;;;;;;;;;;21.50;66.10;;;;;;5001003;28;946;-72
2023/08/03 13:14:07;;;;;;;;;;;21.50;66.10;;;;;;4998846;28;1328;-72
2023/08/03 13:16:32;;;;;;;;;;;21.50;65.70;;;;;;5003098;28;1906;-72
2023/08/03 13:18:58;;;;;;;;;;;21.50;65.30;;;;;;4987127;28;1546;-72
2023/08/03 13:21:23;;;;;;;;;;;21.50;64.90;;;;;;5001001;28;1234;-72
2023/08/03 13:23:49;;;;;;;;;;;21.50;64.50;;;;;;5001273;28;1301;-72
2023/08/03 13:26:14;;;;;;;;;;;21.50;64.50;;;;;;5003367;28;1345;-72
2023/08/03 13:28:40;;;;;;;;;;;21.50;64.60;;;;;;4999257;28;1078;-71
2023/08/03 13:31:06;;;;;;;;;;;21.50;64.50;;;;;;5002130;28;827;-72
2023/08/03 13:33:31;;;;;;;;;;;21.50;64.20;;;;;;4985829;28;1270;-72
2023/08/03 13:35:57;;;;;;;;;;;21.50;63.90;;;;;;4999568;28;1899;-71
2023/08/03 13:38:22;;;;;;;;;;;21.50;64.10;;;;;;4999784;28;1328;-70
2023/08/03 13:40:48;;;;;;;;;;;21.50;64.20;;;;;;5002994;28;1136;-70
2023/08/03 13:43:14;;;;;;;;;;;21.50;64.00;;;;;;4985912;28;1385;-71
2023/08/03 13:45:39;;;;;;;;;;;21.50;63.70;;;;;;4996681;28;882;-72
2023/08/03 13:48:05;;;;;;;;;;;21.50;64.20;;;;;;4999966;28;1194;-70
2023/08/03 13:50:30;;;;;;;;;;;21.50;64.40;;;;;;5000475;28;935;-71
2023/08/03 13:52:56;;;;;;;;;;;21.50;64.30;;;;;;4996574;28;1338;-71
2023/08/03 13:55:21;;;;;;;;;;;21.50;64.50;;;;;;4997685;28;1938;-71
2023/08/03 13:57:46;;;;;;;;;;;21.50;64.10;;;;;;4998947;28;864;-71
2023/08/03 14:00:12;;;;;;;;;;;21.50;63.80;;;;;;5003931;28;897;-74
2023/08/03 14:02:37;;;;;;;;;;;21.50;63.60;;;;;;4992561;28;1358;-73
2023/08/03 14:05:03;;;;;;;;;;;21.50;63.30;;;;;;4998579;28;1341;-72
2023/08/03 14:07:29;;;;;;;;;;;21.40;63.80;;;;;;5000680;28;1909;-73
2023/08/03 14:09:54;;;;;;;;;;;21.40;64.10;;;;;;5000347;28;1530;-73
2023/08/03 14:12:20;;;;;;;;;;;21.40;64.10;;;;;;4998770;28;1468;-72
2023/08/03 14:14:45;;;;;;;;;;;21.40;64.30;;;;;;4997868;28;1213;-73
2023/08/03 14:17:11;;;;;;;;;;;21.40;64.40;;;;;;5001643;28;1890;-73
2023/08/03 14:19:37;;;;;;;;;;;21.40;64.50;;;;;;5001780;28;1353;-73
2023/08/03 14:22:02;;;;;;;;;;;21.40;64.60;;;;;;4999045;28;1074;-73
2023/08/03 14:24:28;;;;;;;;;;;21.40;64.70;;;;;;4997894;28;1247;-73
2023/08/03 14:26:53;;;;;;;;;;;21.40;64.90;;;;;;4997312;28;1031;-73
2023/08/03 14:29:19;;;;;;;;;;;21.40;65.00;;;;;;4993911;28;1511;-73